Time;durP1;ratioP1;P1;durP2;ratioP2;P2;SDS_P1;SDS_P2;PMS_P1;PMS_P2;Temp;Humidity;BMP_temperature;BMP_pressure;BME280_temperature;BME280_humidity;BME280_pressure;Samples;Min_cycle;Max_cycle;Signal;HPM_P1;HPM_P2
2023/10/17 00:02:13;;;;;;;3.47;2.33;;;;;;;;;;5837067;28;20065;-68
2023/10/17 00:05:05;;;;;;;1.83;1.17;;;;;;;;;;5823534;28;20050;-69
2023/10/17 00:07:58;;;;;;;2.15;1.95;;;;;;;;;;5820099;28;20050;-68
2023/10/17 00:10:49;;;;;;;1.92;1.83;;;;;;;;;;5818512;28;20460;-68
2023/10/17 00:14:07;;;;;;;14.55;1.40;;;;;;;;;;5819516;28;20060;-68
2023/10/17 00:16:56;;;;;;;1.63;1.52;;;;;;;;;;5818294;28;20050;-68
2023/10/17 00:19:49;;;;;;;5.53;1.85;;;;;;;;;;5819386;28;20042;-68
2023/10/17 00:22:42;;;;;;;7.05;1.75;;;;;;;;;;5817839;28;20097;-68
2023/10/17 00:25:33;;;;;;;1.65;1.48;;;;;;;;;;5818073;28;20074;-68
2023/10/17 00:28:24;;;;;;;1.38;1.27;;;;;;;;;;5801804;28;20049;-68
2023/10/17 00:31:16;;;;;;;3.75;1.75;;;;;;;;;;5818115;28;20053;-68
2023/10/17 00:34:13;;;;;;;1.42;1.08;;;;;;;;;;5818808;28;20133;-68
2023/10/17 00:37:11;;;;;;;3.40;1.58;;;;;;;;;;5817540;28;20042;-68
2023/10/17 00:40:26;;;;;;;1.25;1.15;;;;;;;;;;5802735;28;20046;-68
2023/10/17 00:43:13;;;;;;;1.52;1.42;;;;;;;;;;5818657;28;20495;-68
2023/10/17 00:46:07;;;;;;;2.92;2.67;;;;;;;;;;5833814;28;20060;-68
2023/10/17 00:48:58;;;;;;;6.40;3.53;;;;;;;;;;5801385;28;20058;-68
2023/10/17 00:51:52;;;;;;;3.80;2.40;;;;;;;;;;5817259;28;20049;-68
2023/10/17 00:54:44;;;;;;;4.10;1.83;;;;;;;;;;5833499;28;20392;-68
2023/10/17 00:57:36;;;;;;;3.92;2.88;;;;;;;;;;5817030;28;20047;-68
2023/10/17 01:00:36;;;;;;;5.40;3.20;;;;;;;;;;5817262;28;20058;-68
2023/10/17 01:03:29;;;;;;;3.15;1.58;;;;;;;;;;5818491;28;20535;-68
2023/10/17 01:09:25;;;;;;;3.95;3.03;;;;;;;;;;5816766;28;20046;-68
2023/10/17 01:12:16;;;;;;;43.63;2.58;;;;;;;;;;5816581;28;20113;-68
2023/10/17 01:15:18;;;;;;;4.25;2.58;;;;;;;;;;5818044;28;20054;-68
2023/10/17 01:18:09;;;;;;;5.90;2.58;;;;;;;;;;5818014;28;20058;-68
2023/10/17 01:21:00;;;;;;;1.77;1.67;;;;;;;;;;5833398;28;20047;-67
2023/10/17 01:23:51;;;;;;;13.88;6.55;;;;;;;;;;5816889;28;20050;-67
2023/10/17 01:26:45;;;;;;;3.92;2.40;;;;;;;;;;5816625;28;20065;-67
2023/10/17 01:29:36;;;;;;;5.82;2.75;;;;;;;;;;5800991;28;20057;-68
2023/10/17 01:32:27;;;;;;;20.42;4.78;;;;;;;;;;5832513;28;20054;-68
2023/10/17 01:35:21;;;;;;;3.58;2.40;;;;;;;;;;5816487;28;20047;-68
2023/10/17 01:38:13;;;;;;;11.45;3.50;;;;;;;;;;5816634;28;20058;-68
2023/10/17 01:41:04;;;;;;;1.95;1.20;;;;;;;;;;5817741;28;20156;-68
2023/10/17 01:43:56;;;;;;;2.35;2.15;;;;;;;;;;5818065;28;20471;-67
2023/10/17 01:46:47;;;;;;;3.30;2.40;;;;;;;;;;5832600;28;20057;-67
2023/10/17 01:49:38;;;;;;;4.18;3.13;;;;;;;;;;5817534;28;20050;-68
2023/10/17 01:52:30;;;;;;;9.75;4.55;;;;;;;;;;5816222;28;20053;-68
2023/10/17 01:55:26;;;;;;;6.28;2.85;;;;;;;;;;5800406;28;20050;-68
2023/10/17 01:58:18;;;;;;;7.22;2.33;;;;;;;;;;5816315;28;20054;-68
2023/10/17 02:01:14;;;;;;;3.85;2.72;;;;;;;;;;5815741;28;20059;-68
2023/10/17 02:04:05;;;;;;;4.75;2.13;;;;;;;;;;5817428;28;20058;-68
2023/10/17 02:06:56;;;;;;;5.32;2.92;;;;;;;;;;5816505;28;20047;-67
2023/10/17 02:09:47;;;;;;;9.43;4.25;;;;;;;;;;5832249;28;20046;-67
2023/10/17 02:12:41;;;;;;;10.27;4.90;;;;;;;;;;5815719;28;20046;-67
2023/10/17 02:15:32;;;;;;;4.03;2.60;;;;;;;;;;5832179;28;20515;-67
2023/10/17 02:18:23;;;;;;;6.53;2.95;;;;;;;;;;5815919;28;20125;-67
2023/10/17 02:21:14;;;;;;;9.70;3.42;;;;;;;;;;5815985;28;20051;-67
2023/10/17 02:24:10;;;;;;;6.30;3.05;;;;;;;;;;5817001;28;20579;-68
2023/10/17 02:27:01;;;;;;;5.00;2.22;;;;;;;;;;5815810;28;20130;-69
2023/10/17 02:29:53;;;;;;;4.53;3.08;;;;;;;;;;5817489;28;20511;-68
2023/10/17 02:32:46;;;;;;;5.40;2.35;;;;;;;;;;5815768;28;20046;-67
2023/10/17 02:35:41;;;;;;;124.55;47.42;;;;;;;;;;5815869;28;20050;-67
2023/10/17 02:38:31;;;;;;;43.92;17.13;;;;;;;;;;5815584;28;20053;-67
2023/10/17 02:41:22;;;;;;;50.63;16.73;;;;;;;;;;5832073;28;20046;-67
2023/10/17 02:44:18;;;;;;;13.63;6.88;;;;;;;;;;5831745;28;20058;-68
2023/10/17 02:47:12;;;;;;;20.60;9.40;;;;;;;;;;5816818;28;20081;-68
2023/10/17 02:50:20;;;;;;;23.45;11.77;;;;;;;;;;5800012;28;20050;-67
2023/10/17 02:53:12;;;;;;;14.27;5.88;;;;;;;;;;5816793;28;20054;-68
2023/10/17 02:56:18;;;;;;;9.13;5.35;;;;;;;;;;5816848;28;20416;-68
2023/10/17 02:59:17;;;;;;;16.33;9.10;;;;;;;;;;5815647;28;20516;-68
2023/10/17 03:02:08;;;;;;;7.32;4.95;;;;;;;;;;5831672;28;20176;-68
2023/10/17 03:05:11;;;;;;;10.43;4.10;;;;;;;;;;5815801;28;20054;-67
2023/10/17 03:08:09;;;;;;;6.40;2.90;;;;;;;;;;5800553;28;20046;-68
2023/10/17 03:11:00;;;;;;;7.40;2.63;;;;;;;;;;5816653;28;20072;-71
2023/10/17 03:13:52;;;;;;;2.67;1.63;;;;;;;;;;5818247;28;20061;-67
2023/10/17 03:16:43;;;;;;;5.55;4.32;;;;;;;;;;5819312;28;20057;-67
2023/10/17 03:19:35;;;;;;;8.77;6.47;;;;;;;;;;5820515;28;20050;-68
2023/10/17 03:22:27;;;;;;;11.15;3.60;;;;;;;;;;5819316;28;20050;-68
2023/10/17 03:25:18;;;;;;;7.25;3.35;;;;;;;;;;5819403;28;20054;-67
2023/10/17 03:28:13;;;;;;;8.77;5.90;;;;;;;;;;5819203;28;20515;-68
2023/10/17 03:31:10;;;;;;;9.77;6.13;;;;;;;;;;5803805;28;20126;-68
2023/10/17 03:34:04;;;;;;;10.52;6.18;;;;;;;;;;5820470;28;20050;-69
2023/10/17 03:36:55;;;;;;;13.63;6.20;;;;;;;;;;5819684;28;20047;-68
2023/10/17 03:39:52;;;;;;;7.90;5.63;;;;;;;;;;5819037;28;20069;-68
2023/10/17 03:45:43;;;;;;;10.00;4.93;;;;;;;;;;5818945;28;20046;-67
2023/10/17 03:48:39;;;;;;;5.88;4.97;;;;;;;;;;5803967;28;20412;-68
2023/10/17 03:51:30;;;;;;;11.63;4.75;;;;;;;;;;5818742;28;20050;-67
2023/10/17 03:54:24;;;;;;;5.28;2.33;;;;;;;;;;5820014;28;20492;-68
2023/10/17 03:57:15;;;;;;;3.28;1.73;;;;;;;;;;5818874;28;20137;-68
2023/10/17 04:00:18;;;;;;;3.75;2.42;;;;;;;;;;5818413;28;20073;-68
2023/10/17 04:03:18;;;;;;;4.68;2.90;;;;;;;;;;5819825;28;20054;-68
2023/10/17 04:09:26;;;;;;;6.60;4.75;;;;;;;;;;5818772;28;20432;-67
2023/10/17 04:12:21;;;;;;;16.95;5.55;;;;;;;;;;5831139;28;20050;-68
2023/10/17 04:15:15;;;;;;;8.15;3.58;;;;;;;;;;5818337;28;20046;-67
2023/10/17 04:18:06;;;;;;;14.25;3.00;;;;;;;;;;5802349;28;20065;-68
2023/10/17 04:21:12;;;;;;;5.70;2.17;;;;;;;;;;5820173;28;20133;-67
2023/10/17 04:24:07;;;;;;;5.38;3.30;;;;;;;;;;5817944;28;20411;-68
2023/10/17 04:27:19;;;;;;;6.60;4.10;;;;;;;;;;5818549;28;20068;-67
2023/10/17 04:30:22;;;;;;;12.30;5.50;;;;;;;;;;5804528;28;20047;-68
2023/10/17 04:33:13;;;;;;;12.13;3.50;;;;;;;;;;5819136;28;20056;-67
2023/10/17 04:36:06;;;;;;;12.30;6.90;;;;;;;;;;5833869;28;20065;-68
2023/10/17 04:42:06;;;;;;;10.15;4.18;;;;;;;;;;5817750;28;20416;-68
2023/10/17 04:45:13;;;;;;;11.65;5.85;;;;;;;;;;5819553;28;20054;-67
2023/10/17 04:48:11;;;;;;;20.17;7.57;;;;;;;;;;5817204;28;20140;-68
2023/10/17 04:57:16;;;;;;;13.32;6.63;;;;;;;;;;5817366;28;20050;-67
2023/10/17 05:00:11;;;;;;;12.57;6.80;;;;;;;;;;5817414;28;20054;-68
2023/10/17 05:03:14;;;;;;;9.70;6.22;;;;;;;;;;5833350;28;20048;-68
2023/10/17 06:18:57;;;;;;;21.33;7.95;;;;;;;;;;5816612;28;20054;-67
2023/10/17 06:23:23;;;;;;;18.80;7.38;;;;;;;;;;5816182;28;20077;-67
2023/10/17 06:31:42;;;;;;;20.45;9.82;;;;;;;;;;5812312;28;20050;-68
2023/10/17 06:34:33;;;;;;;15.80;8.45;;;;;;;;;;5817165;28;20062;-67
2023/10/17 06:37:30;;;;;;;16.55;6.45;;;;;;;;;;5815767;28;20046;-68
2023/10/17 06:40:30;;;;;;;12.68;7.22;;;;;;;;;;5800855;28;20044;-68
2023/10/17 06:43:30;;;;;;;16.70;6.05;;;;;;;;;;5816994;28;20445;-68
2023/10/17 06:46:29;;;;;;;22.58;10.57;;;;;;;;;;5815996;28;20053;-68
2023/10/17 06:52:23;;;;;;;8.20;5.82;;;;;;;;;;5820269;28;20504;-68
2023/10/17 06:55:21;;;;;;;8.93;6.10;;;;;;;;;;5820188;28;20073;-68
2023/10/17 06:58:14;;;;;;;8.18;6.22;;;;;;;;;;5819819;28;20054;-68
2023/10/17 07:01:05;;;;;;;8.43;5.40;;;;;;;;;;5821296;28;20046;-68
2023/10/17 07:03:56;;;;;;;9.55;3.85;;;;;;;;;;5820329;28;20500;-68
2023/10/17 07:06:47;;;;;;;6.18;2.97;;;;;;;;;;5821293;28;20499;-68
2023/10/17 07:09:38;;;;;;;3.30;3.00;;;;;;;;;;5820808;28;20061;-68
2023/10/17 07:12:30;;;;;;;3.50;3.20;;;;;;;;;;5820779;28;20050;-68
2023/10/17 07:15:25;;;;;;;10.48;4.93;;;;;;;;;;5819734;28;20077;-68
2023/10/17 07:21:27;;;;;;;7.40;4.57;;;;;;;;;;5817036;28;20479;-68
2023/10/17 07:24:23;;;;;;;7.00;5.30;;;;;;;;;;5819361;28;20527;-68
2023/10/17 07:27:27;;;;;;;11.63;5.50;;;;;;;;;;5820076;28;20416;-68
2023/10/17 07:30:35;;;;;;;8.88;4.90;;;;;;;;;;5819581;28;20050;-67
2023/10/17 07:33:26;;;;;;;14.00;5.65;;;;;;;;;;5819338;28;20065;-67
2023/10/17 07:36:17;;;;;;;11.18;5.68;;;;;;;;;;5820316;28;20058;-68
2023/10/17 07:39:16;;;;;;;7.22;5.85;;;;;;;;;;5835167;28;20527;-68
2023/10/17 07:42:14;;;;;;;9.57;6.38;;;;;;;;;;5835180;28;20050;-68
2023/10/17 07:45:13;;;;;;;8.45;5.80;;;;;;;;;;5819090;28;20051;-67
2023/10/17 07:48:19;;;;;;;10.02;6.68;;;;;;;;;;5834654;28;20046;-68
2023/10/17 07:51:14;;;;;;;6.72;4.55;;;;;;;;;;5819005;28;20050;-67
2023/10/17 07:54:07;;;;;;;27.25;7.47;;;;;;;;;;5818738;28;20050;-68
2023/10/17 07:56:58;;;;;;;7.30;6.60;;;;;;;;;;5818958;28;20043;-67
2023/10/17 07:59:56;;;;;;;11.05;5.95;;;;;;;;;;5802202;28;20042;-68
2023/10/17 08:02:48;;;;;;;12.48;5.78;;;;;;;;;;5819384;28;20416;-67
2023/10/17 08:05:45;;;;;;;8.63;6.78;;;;;;;;;;5802344;28;20050;-67
2023/10/17 08:08:42;;;;;;;24.92;7.07;;;;;;;;;;5818089;28;20046;-67
2023/10/17 08:11:36;;;;;;;7.13;4.35;;;;;;;;;;5818029;28;20054;-67
2023/10/17 08:14:34;;;;;;;14.63;5.65;;;;;;;;;;5818724;28;20060;-68
2023/10/17 08:17:29;;;;;;;12.20;5.85;;;;;;;;;;5834008;28;20053;-68
2023/10/17 08:23:46;;;;;;;3.85;3.35;;;;;;;;;;5804997;28;20416;-68
2023/10/17 08:26:40;;;;;;;7.63;4.60;;;;;;;;;;5817174;28;20460;-68
2023/10/17 08:29:31;;;;;;;6.93;4.70;;;;;;;;;;5817802;28;20393;-67
2023/10/17 08:35:20;;;;;;;9.30;4.10;;;;;;;;;;5817591;28;20059;-68
2023/10/17 08:38:12;;;;;;;10.73;4.90;;;;;;;;;;5818695;28;20058;-68
2023/10/17 08:41:09;;;;;;;6.47;3.47;;;;;;;;;;5817454;28;20162;-69
2023/10/17 08:44:00;;;;;;;3.17;2.22;;;;;;;;;;5817718;28;20050;-67
2023/10/17 08:46:51;;;;;;;5.03;2.63;;;;;;;;;;5801373;28;20042;-68
2023/10/17 08:49:44;;;;;;;9.75;3.13;;;;;;;;;;5818421;28;20042;-68
2023/10/17 08:52:39;;;;;;;6.78;2.30;;;;;;;;;;5817045;28;20054;-68
2023/10/17 08:55:29;;;;;;;2.97;2.10;;;;;;;;;;5817539;28;20050;-68
2023/10/17 08:58:43;;;;;;;2.22;1.98;;;;;;;;;;5817959;28;20054;-68
2023/10/17 09:01:31;;;;;;;4.28;2.35;;;;;;;;;;5817101;28;20061;-68
2023/10/17 09:04:22;;;;;;;6.97;3.35;;;;;;;;;;5816958;28;20058;-68
2023/10/17 09:07:31;;;;;;;2.63;1.77;;;;;;;;;;5816818;28;20131;-68
2023/10/17 09:10:38;;;;;;;3.05;1.88;;;;;;;;;;5817596;28;20129;-68
2023/10/17 09:16:39;;;;;;;4.72;2.05;;;;;;;;;;5816710;28;20052;-68
2023/10/17 09:19:46;;;;;;;5.10;2.20;;;;;;;;;;5832834;28;20485;-68
2023/10/17 09:22:38;;;;;;;11.85;1.77;;;;;;;;;;5817937;28;20058;-68
2023/10/17 09:25:30;;;;;;;5.28;2.30;;;;;;;;;;5816455;28;20054;-68
2023/10/17 09:28:24;;;;;;;7.68;2.28;;;;;;;;;;5800633;28;20057;-68
2023/10/17 09:31:17;;;;;;;1.13;1.02;;;;;;;;;;5816895;28;20082;-68
2023/10/17 09:34:08;;;;;;;1.70;1.45;;;;;;;;;;5817655;28;20072;-69
2023/10/17 09:37:04;;;;;;;2.33;1.75;;;;;;;;;;5816839;28;20073;-68
2023/10/17 09:40:03;;;;;;;1.80;0.98;;;;;;;;;;5816824;28;20420;-68
2023/10/17 09:42:54;;;;;;;1.38;1.10;;;;;;;;;;5801017;28;20124;-68
2023/10/17 09:45:47;;;;;;;2.38;1.70;;;;;;;;;;5800322;28;20046;-68
2023/10/17 09:48:43;;;;;;;5.30;1.95;;;;;;;;;;5815953;28;20173;-68
2023/10/17 09:51:40;;;;;;;3.33;1.38;;;;;;;;;;5816051;28;20046;-68
2023/10/17 09:54:34;;;;;;;2.05;1.65;;;;;;;;;;5816140;28;20050;-68
2023/10/17 09:57:26;;;;;;;15.65;1.50;;;;;;;;;;5816008;28;20063;-68
2023/10/17 10:00:37;;;;;;;2.33;1.75;;;;;;;;;;5815975;28;20050;-68
2023/10/17 10:03:30;;;;;;;5.07;1.55;;;;;;;;;;5830896;28;20077;-68
2023/10/17 10:06:30;;;;;;;2.63;1.50;;;;;;;;;;5816139;28;20140;-68
2023/10/17 10:09:26;;;;;;;2.08;1.25;;;;;;;;;;5800455;28;20548;-68
2023/10/17 10:12:18;;;;;;;2.30;1.08;;;;;;;;;;5817262;28;20129;-68
2023/10/17 10:15:48;;;;;;;1.10;0.80;;;;;;;;;;5816020;28;20054;-68
2023/10/17 10:18:42;;;;;;;0.75;0.75;;;;;;;;;;5816956;28;20126;-69
2023/10/17 10:21:58;;;;;;;1.63;0.90;;;;;;;;;;5818077;28;20128;-69
2023/10/17 10:25:05;;;;;;;12.18;1.45;;;;;;;;;;5820401;28;20050;-69
2023/10/17 10:28:26;;;;;;;2.47;1.00;;;;;;;;;;5821911;28;20049;-69
2023/10/17 10:31:23;;;;;;;2.03;1.25;;;;;;;;;;5836325;28;20373;-69
2023/10/17 10:34:14;;;;;;;1.02;0.93;;;;;;;;;;5821329;28;20046;-69
2023/10/17 10:37:07;;;;;;;0.85;0.75;;;;;;;;;;5819829;28;20050;-68
2023/10/17 10:40:12;;;;;;;2.60;1.13;;;;;;;;;;5820713;28;20054;-68
2023/10/17 10:43:04;;;;;;;0.60;0.60;;;;;;;;;;5821067;28;20050;-69
2023/10/17 10:45:57;;;;;;;3.25;1.27;;;;;;;;;;5821886;28;20369;-68
2023/10/17 10:48:51;;;;;;;4.22;1.58;;;;;;;;;;5820973;28;20053;-69
2023/10/17 10:51:47;;;;;;;2.55;1.58;;;;;;;;;;5819877;28;20145;-68
2023/10/17 10:54:59;;;;;;;2.65;1.88;;;;;;;;;;5820977;28;20101;-68
2023/10/17 10:57:52;;;;;;;2.10;1.52;;;;;;;;;;5820050;28;20125;-68
2023/10/17 11:00:42;;;;;;;2.05;1.42;;;;;;;;;;5821192;28;20081;-68
2023/10/17 11:03:40;;;;;;;2.40;1.45;;;;;;;;;;5819565;28;20050;-68
2023/10/17 11:06:35;;;;;;;4.28;2.47;;;;;;;;;;5819697;28;20054;-68
2023/10/17 11:09:26;;;;;;;2.15;1.52;;;;;;;;;;5820731;28;20057;-68
2023/10/17 11:12:23;;;;;;;4.95;1.58;;;;;;;;;;5819135;28;20144;-69
2023/10/17 11:15:16;;;;;;;2.08;1.45;;;;;;;;;;5835561;28;20053;-68
2023/10/17 11:18:07;;;;;;;3.05;1.13;;;;;;;;;;5820474;28;20054;-69
2023/10/17 11:20:58;;;;;;;6.70;1.08;;;;;;;;;;5820241;28;20403;-68
2023/10/17 11:24:04;;;;;;;1.20;0.60;;;;;;;;;;5819531;28;20056;-68
2023/10/17 11:26:56;;;;;;;11.15;1.23;;;;;;;;;;5819740;28;20050;-68
2023/10/17 11:29:51;;;;;;;3.33;1.27;;;;;;;;;;5820640;28;20054;-68
2023/10/17 11:32:42;;;;;;;1.15;0.63;;;;;;;;;;5803226;28;20053;-68
2023/10/17 11:35:34;;;;;;;3.67;1.10;;;;;;;;;;5818891;28;20050;-69
2023/10/17 11:38:35;;;;;;;1.17;0.90;;;;;;;;;;5819110;28;20157;-69
2023/10/17 11:41:39;;;;;;;0.85;0.60;;;;;;;;;;5820041;28;20051;-69
2023/10/17 11:44:31;;;;;;;1.10;0.85;;;;;;;;;;5819991;28;20050;-69
2023/10/17 11:47:28;;;;;;;1.45;1.02;;;;;;;;;;5819869;28;20440;-68
2023/10/17 11:50:32;;;;;;;2.45;1.02;;;;;;;;;;5818797;28;20192;-69
2023/10/17 11:53:23;;;;;;;2.85;1.58;;;;;;;;;;5818636;28;20110;-69
2023/10/17 11:56:20;;;;;;;2.13;1.08;;;;;;;;;;5818774;28;20500;-69
2023/10/17 11:59:12;;;;;;;0.50;0.50;;;;;;;;;;5802434;28;20523;-68
2023/10/17 12:02:03;;;;;;;2.42;1.27;;;;;;;;;;5819625;28;20051;-69
2023/10/17 12:04:54;;;;;;;1.58;1.20;;;;;;;;;;5835051;28;20077;-69
2023/10/17 12:07:53;;;;;;;1.00;0.90;;;;;;;;;;5834519;28;20042;-69
2023/10/17 12:10:45;;;;;;;1.30;0.90;;;;;;;;;;5818410;28;20125;-69
2023/10/17 12:13:37;;;;;;;0.60;0.60;;;;;;;;;;5817472;28;20042;-68
2023/10/17 12:16:29;;;;;;;1.20;0.68;;;;;;;;;;5818183;28;20047;-68
2023/10/17 12:19:28;;;;;;;1.25;0.98;;;;;;;;;;5838708;28;20054;-68
2023/10/17 12:22:19;;;;;;;;;;;;;;;;;;5841177;28;20079;-68
2023/10/17 12:25:10;;;;;;;0.57;0.50;;;;;;;;;;5857123;28;20374;-68
2023/10/17 12:28:02;;;;;;;4.03;0.82;;;;;;;;;;5840559;28;20049;-72
2023/10/17 12:30:54;;;;;;;2.83;1.45;;;;;;;;;;5842383;28;20428;-69
2023/10/17 12:33:45;;;;;;;1.45;1.27;;;;;;;;;;5822916;28;20463;-68
2023/10/17 12:36:37;;;;;;;2.45;0.85;;;;;;;;;;5840041;28;20046;-69
2023/10/17 12:39:31;;;;;;;1.08;0.70;;;;;;;;;;5840579;28;20046;-69
2023/10/17 12:42:23;;;;;;;1.08;0.68;;;;;;;;;;5840463;28;20049;-69
2023/10/17 12:45:15;;;;;;;0.82;0.55;;;;;;;;;;5839196;28;20072;-69
2023/10/17 12:48:11;;;;;;;2.80;1.10;;;;;;;;;;5839022;28;20065;-70
2023/10/17 12:51:11;;;;;;;4.28;1.27;;;;;;;;;;5840372;28;20049;-69
2023/10/17 12:54:03;;;;;;;1.17;0.82;;;;;;;;;;5841780;28;20424;-69
2023/10/17 12:56:53;;;;;;;4.32;1.10;;;;;;;;;;5842011;28;20054;-69
2023/10/17 12:59:44;;;;;;;7.35;1.65;;;;;;;;;;5839827;28;20057;-69
2023/10/17 13:02:39;;;;;;;7.68;2.88;;;;;;;;;;5839895;28;20049;-69
2023/10/17 13:05:30;;;;;;;8.27;3.22;;;;;;;;;;5839891;28;20056;-69
2023/10/17 13:08:21;;;;;;;5.45;2.00;;;;;;;;;;5839876;28;20123;-69
2023/10/17 13:11:12;;;;;;;2.92;1.83;;;;;;;;;;5823634;28;20427;-69
2023/10/17 13:14:03;;;;;;;5.97;2.90;;;;;;;;;;5823514;28;20054;-69
2023/10/17 13:16:54;;;;;;;11.48;5.97;;;;;;;;;;5840353;28;20050;-69
2023/10/17 13:19:48;;;;;;;8.30;3.60;;;;;;;;;;5840980;28;20427;-69
2023/10/17 13:22:49;;;;;;;15.85;5.60;;;;;;;;;;5840716;28;20369;-69
2023/10/17 13:25:40;;;;;;;14.60;6.22;;;;;;;;;;5839577;28;20053;-69
2023/10/17 13:28:31;;;;;;;8.25;2.38;;;;;;;;;;5840769;28;20416;-69
2023/10/17 13:31:21;;;;;;;120.70;34.85;;;;;;;;;;5839361;28;20041;-69
2023/10/17 13:34:12;;;;;;;11.25;5.05;;;;;;;;;;5839432;28;20141;-69
2023/10/17 13:37:07;;;;;;;78.22;25.45;;;;;;;;;;5839322;28;20132;-69
2023/10/17 13:39:58;;;;;;;64.30;20.08;;;;;;;;;;5839800;28;20049;-68
2023/10/17 13:42:53;;;;;;;97.65;22.40;;;;;;;;;;5839121;28;20046;-69
2023/10/17 13:45:44;;;;;;;21.63;8.45;;;;;;;;;;5840579;28;20503;-69
2023/10/17 13:48:38;;;;;;;50.88;18.08;;;;;;;;;;5822813;28;20522;-68
2023/10/17 13:51:34;;;;;;;210.20;76.65;;;;;;;;;;5838957;28;20046;-69
2023/10/17 13:54:27;;;;;;;490.42;148.27;;;;;;;;;;5823459;28;20057;-69
2023/10/17 13:57:18;;;;;;;195.32;55.15;;;;;;;;;;5838599;28;20054;-69
2023/10/17 14:00:18;;;;;;;105.80;26.50;;;;;;;;;;5838822;28;20132;-69
2023/10/17 14:03:12;;;;;;;11.45;5.25;;;;;;;;;;5839021;28;20112;-69
2023/10/17 14:06:06;;;;;;;11.85;4.30;;;;;;;;;;5822992;28;20129;-69
2023/10/17 14:09:00;;;;;;;9.60;5.50;;;;;;;;;;5840491;28;20072;-69
2023/10/17 14:11:51;;;;;;;6.55;3.15;;;;;;;;;;5840456;28;20049;-69
2023/10/17 14:14:42;;;;;;;10.02;7.47;;;;;;;;;;5822636;28;20054;-69
2023/10/17 14:17:33;;;;;;;8.93;4.25;;;;;;;;;;5840061;28;20072;-69
2023/10/17 14:20:38;;;;;;;5.90;2.75;;;;;;;;;;5839938;28;20045;-69
2023/10/17 14:23:45;;;;;;;1.00;0.85;;;;;;;;;;5839956;28;20073;-69
2023/10/17 14:26:37;;;;;;;1.02;0.93;;;;;;;;;;5840052;28;20053;-69
2023/10/17 14:29:29;;;;;;;1.05;0.77;;;;;;;;;;5838529;28;20058;-69
2023/10/17 14:32:23;;;;;;;3.28;0.90;;;;;;;;;;5838654;28;20049;-69
2023/10/17 14:35:22;;;;;;;16.17;1.55;;;;;;;;;;5838310;28;20050;-69
2023/10/17 14:38:14;;;;;;;11.80;1.55;;;;;;;;;;5836077;28;20487;-69
2023/10/17 14:41:09;;;;;;;7.30;1.48;;;;;;;;;;5839105;28;20406;-68
2023/10/17 14:44:01;;;;;;;2.05;1.48;;;;;;;;;;5840774;28;20064;-73
2023/10/17 14:46:55;;;;;;;1.52;1.20;;;;;;;;;;5840013;28;20448;-69
2023/10/17 14:49:47;;;;;;;1.73;1.05;;;;;;;;;;5840122;28;20565;-68
2023/10/17 14:52:39;;;;;;;1.52;1.17;;;;;;;;;;5838571;28;20471;-69
2023/10/17 14:55:30;;;;;;;2.20;1.30;;;;;;;;;;5838822;28;20050;-68
2023/10/17 14:58:21;;;;;;;1.27;1.17;;;;;;;;;;5838724;28;20058;-68
2023/10/17 15:01:12;;;;;;;2.17;1.20;;;;;;;;;;5839135;28;20048;-69
2023/10/17 15:04:05;;;;;;;1.23;1.13;;;;;;;;;;5838907;28;20050;-69
2023/10/17 15:06:59;;;;;;;1.83;1.30;;;;;;;;;;5819634;28;20052;-68
2023/10/17 15:09:51;;;;;;;1.35;1.08;;;;;;;;;;5827129;28;20053;-69
2023/10/17 15:12:45;;;;;;;4.70;1.77;;;;;;;;;;5840307;28;20135;-69
2023/10/17 15:15:36;;;;;;;2.38;1.40;;;;;;;;;;5827183;28;20046;-68
2023/10/17 15:18:27;;;;;;;3.65;1.55;;;;;;;;;;5842689;28;20050;-69
2023/10/17 15:21:21;;;;;;;51.85;3.08;;;;;;;;;;5844322;28;20052;-69
2023/10/17 15:24:16;;;;;;;4.03;2.47;;;;;;;;;;5842353;28;20045;-69
2023/10/17 15:27:07;;;;;;;11.50;4.30;;;;;;;;;;5826180;28;20057;-69
2023/10/17 15:29:58;;;;;;;4.60;3.10;;;;;;;;;;5818519;28;20491;-68
2023/10/17 15:32:49;;;;;;;159.25;48.65;;;;;;;;;;5827215;28;20414;-68
2023/10/17 15:35:46;;;;;;;90.28;36.03;;;;;;;;;;5842901;28;20077;-69
2023/10/17 15:38:40;;;;;;;34.65;12.63;;;;;;;;;;5843602;28;20072;-68
2023/10/17 15:41:31;;;;;;;11.68;5.75;;;;;;;;;;5825869;28;20098;-69
2023/10/17 15:44:37;;;;;;;17.20;6.97;;;;;;;;;;5826010;28;20077;-68
2023/10/17 15:47:28;;;;;;;24.33;10.80;;;;;;;;;;5841078;28;20565;-69
2023/10/17 15:50:23;;;;;;;23.52;9.27;;;;;;;;;;5841350;28;20042;-68
2023/10/17 15:53:14;;;;;;;10.55;5.80;;;;;;;;;;5826917;28;20118;-68
2023/10/17 15:56:04;;;;;;;10.05;3.97;;;;;;;;;;5825845;28;20042;-68
2023/10/17 15:58:58;;;;;;;13.85;7.65;;;;;;;;;;5843614;28;20085;-68
2023/10/17 16:01:50;;;;;;;10.38;7.25;;;;;;;;;;5841811;28;20038;-68
2023/10/17 16:04:41;;;;;;;30.00;12.68;;;;;;;;;;5843276;28;20056;-68
2023/10/17 16:07:44;;;;;;;26.50;14.60;;;;;;;;;;5841898;28;20056;-68
2023/10/17 16:10:35;;;;;;;69.10;25.08;;;;;;;;;;5825516;28;20057;-68
2023/10/17 16:13:26;;;;;;;41.55;17.58;;;;;;;;;;5834207;28;20056;-68
2023/10/17 16:16:18;;;;;;;12.40;5.97;;;;;;;;;;5841558;28;20141;-68
2023/10/17 16:19:10;;;;;;;7.68;4.43;;;;;;;;;;5840646;28;20050;-68
2023/10/17 16:22:01;;;;;;;24.55;14.68;;;;;;;;;;5840799;28;20049;-69
2023/10/17 16:24:52;;;;;;;16.95;8.40;;;;;;;;;;5841854;28;20050;-68
2023/10/17 16:27:47;;;;;;;11.80;6.85;;;;;;;;;;5841957;28;20500;-68
2023/10/17 16:30:40;;;;;;;15.98;7.68;;;;;;;;;;5840749;28;20088;-68
2023/10/17 16:33:31;;;;;;;61.72;24.42;;;;;;;;;;5841014;28;20053;-68
2023/10/17 16:36:24;;;;;;;8.85;6.93;;;;;;;;;;5840868;28;20527;-68
2023/10/17 16:39:15;;;;;;;23.83;13.65;;;;;;;;;;5840764;28;20050;-68
2023/10/17 16:42:06;;;;;;;36.38;17.67;;;;;;;;;;5833215;28;20053;-69
2023/10/17 16:44:57;;;;;;;13.38;6.65;;;;;;;;;;5841937;28;20516;-68
2023/10/17 16:47:50;;;;;;;11.85;5.95;;;;;;;;;;5840755;28;20056;-68
2023/10/17 16:50:53;;;;;;;14.95;7.45;;;;;;;;;;5824148;28;20049;-68
2023/10/17 16:53:45;;;;;;;13.38;6.85;;;;;;;;;;5840620;28;20045;-68
2023/10/17 16:56:41;;;;;;;15.23;8.70;;;;;;;;;;5825057;28;20553;-68
2023/10/17 16:59:37;;;;;;;16.42;9.40;;;;;;;;;;5824280;28;20416;-68
2023/10/17 17:02:28;;;;;;;15.20;10.65;;;;;;;;;;5824438;28;20050;-68
2023/10/17 17:05:20;;;;;;;17.63;11.00;;;;;;;;;;5840272;28;20447;-68
2023/10/17 17:08:11;;;;;;;18.58;7.70;;;;;;;;;;5840030;28;20050;-69
2023/10/17 17:11:05;;;;;;;10.60;6.93;;;;;;;;;;5819189;28;20132;-69
2023/10/17 17:13:56;;;;;;;9.65;6.50;;;;;;;;;;5857132;28;20068;-68
2023/10/17 17:16:50;;;;;;;19.10;10.80;;;;;;;;;;5840382;28;20049;-68
2023/10/17 17:19:41;;;;;;;24.70;13.32;;;;;;;;;;5839704;28;20057;-68
2023/10/17 17:22:32;;;;;;;16.88;10.43;;;;;;;;;;5816865;28;20057;-68
2023/10/17 17:25:23;;;;;;;31.55;17.05;;;;;;;;;;5836234;28;20051;-68
2023/10/17 17:28:19;;;;;;;17.10;9.30;;;;;;;;;;5840332;28;20079;-68
2023/10/17 17:31:10;;;;;;;12.70;9.38;;;;;;;;;;5822402;28;20135;-69
2023/10/17 17:34:03;;;;;;;27.98;13.90;;;;;;;;;;5840144;28;20087;-69
2023/10/17 17:36:54;;;;;;;24.38;11.90;;;;;;;;;;5841340;28;20054;-68
2023/10/17 17:39:49;;;;;;;15.70;10.43;;;;;;;;;;5823089;28;20060;-68
2023/10/17 17:42:43;;;;;;;12.70;9.60;;;;;;;;;;5841064;28;20414;-68
2023/10/17 17:45:33;;;;;;;19.67;13.23;;;;;;;;;;5839663;28;20518;-68
2023/10/17 17:48:24;;;;;;;26.63;13.98;;;;;;;;;;5841386;28;20052;-68
2023/10/17 17:51:17;;;;;;;22.50;13.30;;;;;;;;;;5838928;28;20526;-68
2023/10/17 17:54:16;;;;;;;27.73;15.65;;;;;;;;;;5841223;28;20396;-68
2023/10/17 17:57:09;;;;;;;14.45;10.13;;;;;;;;;;5839177;28;20050;-69
2023/10/17 18:00:00;;;;;;;36.80;19.77;;;;;;;;;;5846338;28;20140;-68
2023/10/17 18:02:51;;;;;;;25.85;18.48;;;;;;;;;;5837427;28;20068;-68
2023/10/17 18:05:42;;;;;;;19.10;14.02;;;;;;;;;;5838951;28;20132;-68
2023/10/17 18:08:34;;;;;;;23.15;16.38;;;;;;;;;;5840090;28;20049;-68
2023/10/17 18:11:25;;;;;;;18.45;14.20;;;;;;;;;;5840217;28;20073;-68
2023/10/17 18:14:19;;;;;;;19.67;11.00;;;;;;;;;;5816466;28;20499;-68
2023/10/17 18:17:13;;;;;;;23.77;15.07;;;;;;;;;;5841087;28;20180;-68
2023/10/17 18:20:08;;;;;;;22.40;12.98;;;;;;;;;;5840450;28;20049;-68
2023/10/17 18:22:59;;;;;;;19.83;11.05;;;;;;;;;;5840377;28;20050;-68
2023/10/17 18:25:50;;;;;;;10.90;7.10;;;;;;;;;;5840383;28;20046;-68
2023/10/17 18:28:41;;;;;;;19.63;9.52;;;;;;;;;;5841005;28;20057;-68
2023/10/17 18:31:38;;;;;;;19.52;8.93;;;;;;;;;;5839403;28;20050;-68
2023/10/17 18:34:32;;;;;;;27.05;13.68;;;;;;;;;;5824928;28;20050;-68
2023/10/17 18:37:31;;;;;;;20.73;10.45;;;;;;;;;;5841539;28;20407;-68
2023/10/17 18:40:24;;;;;;;22.05;14.45;;;;;;;;;;5840401;28;20152;-68
2023/10/17 18:43:19;;;;;;;25.65;14.73;;;;;;;;;;5839340;28;20138;-68
2023/10/17 18:46:12;;;;;;;22.30;13.77;;;;;;;;;;5828230;28;20050;-68
2023/10/17 18:49:03;;;;;;;17.38;11.35;;;;;;;;;;5843980;28;20045;-69
2023/10/17 18:51:54;;;;;;;23.90;11.88;;;;;;;;;;5816355;28;20072;-68
2023/10/17 18:54:45;;;;;;;28.75;18.25;;;;;;;;;;5843020;28;20052;-68
2023/10/17 18:57:39;;;;;;;31.38;19.70;;;;;;;;;;5842469;28;20053;-68
2023/10/17 19:00:35;;;;;;;27.67;15.48;;;;;;;;;;5826693;28;20376;-67
2023/10/17 19:03:26;;;;;;;19.92;12.65;;;;;;;;;;5823271;28;20050;-68
2023/10/17 19:06:17;;;;;;;49.50;26.92;;;;;;;;;;5841633;28;20065;-68
2023/10/17 19:09:10;;;;;;;29.85;21.13;;;;;;;;;;5842976;28;20500;-68
2023/10/17 19:12:01;;;;;;;35.55;17.33;;;;;;;;;;5842251;28;20053;-69